createdAt,value
2018-02-17T00:02:23.492Z,49.73
2018-02-17T00:04:51.035Z,50.00
2018-02-17T00:07:18.600Z,47.47
2018-02-17T00:09:46.196Z,48.20
2018-02-17T00:12:13.750Z,47.77
2018-02-17T00:14:41.344Z,48.23
2018-02-17T00:17:08.898Z,48.23
2018-02-17T00:19:36.434Z,50.47
2018-02-17T00:22:04.029Z,47.17
2018-02-17T00:24:31.636Z,47.23
2018-02-17T00:26:59.750Z,51.00
2018-02-17T00:29:27.331Z,49.90
2018-02-17T00:31:54.907Z,48.70
2018-02-17T00:34:22.447Z,50.60
2018-02-17T00:36:50.470Z,57.33
2018-02-17T00:39:18.043Z,56.27
2018-02-17T00:41:45.642Z,56.03
2018-02-17T00:44:13.200Z,56.37
2018-02-17T00:46:40.792Z,55.80
2018-02-17T00:49:08.397Z,59.53
2018-02-17T00:51:35.952Z,57.20
2018-02-17T00:54:03.939Z,56.80
2018-02-17T00:56:31.544Z,61.17
2018-02-17T00:58:59.095Z,61.57
2018-02-17T01:01:26.649Z,58.00
2018-02-17T01:03:54.252Z,57.90
2018-02-17T01:06:21.791Z,58.23
2018-02-17T01:08:49.339Z,60.60
2018-02-17T01:11:16.921Z,69.07
2018-02-17T01:13:44.483Z,65.30
2018-02-17T01:16:12.085Z,63.87
2018-02-17T01:18:39.634Z,60.90
2018-02-17T01:21:07.228Z,58.93
2018-02-17T01:23:34.766Z,64.07
2018-02-17T01:26:02.560Z,60.20
2018-02-17T01:28:30.121Z,57.43
2018-02-17T01:30:57.678Z,56.47
2018-02-17T01:33:25.280Z,56.57
2018-02-17T01:35:53.005Z,53.50
2018-02-17T01:38:20.552Z,55.63
2018-02-17T01:40:48.142Z,55.07
2018-02-17T01:43:16.121Z,52.90
2018-02-17T01:45:43.695Z,52.43
2018-02-17T01:48:11.243Z,51.30
2018-02-17T01:50:39.166Z,49.97
2018-02-17T01:53:06.734Z,50.77
2018-02-17T01:55:34.337Z,47.97
2018-02-17T01:58:01.894Z,51.17
2018-02-17T02:00:29.437Z,54.83
2018-02-17T02:02:57.043Z,58.97
2018-02-17T02:05:24.589Z,60.03
2018-02-17T02:07:52.182Z,61.97
2018-02-17T02:10:20.045Z,58.03
2018-02-17T02:12:47.615Z,57.37
2018-02-17T02:15:15.211Z,59.97
2018-02-17T02:17:42.755Z,59.10
2018-02-17T02:20:10.928Z,59.00
2018-02-17T02:22:38.535Z,57.77
2018-02-17T02:25:06.520Z,58.10
2018-02-17T02:27:34.223Z,60.23
2018-02-17T02:30:01.819Z,60.10
2018-02-17T02:32:29.368Z,60.57
2018-02-17T02:34:56.913Z,60.60
2018-02-17T02:37:24.503Z,58.37
2018-02-17T02:39:52.092Z,58.60
2018-02-17T02:42:19.649Z,57.97
2018-02-17T02:44:47.256Z,58.37
2018-02-17T02:47:14.791Z,59.87
2018-02-17T02:49:42.748Z,57.27
2018-02-17T02:52:10.334Z,57.00
2018-02-17T02:54:37.884Z,56.73
2018-02-17T02:57:05.476Z,54.63
2018-02-17T02:59:33.628Z,47.97
2018-02-17T03:02:01.206Z,46.67
2018-02-17T03:04:28.800Z,44.63
2018-02-17T03:06:56.681Z,42.47
2018-02-17T03:09:24.265Z,43.37
2018-02-17T03:11:51.861Z,42.17
2018-02-17T03:14:19.412Z,41.03
2018-02-17T03:16:46.950Z,41.17
2018-02-17T03:19:14.518Z,41.47
2018-02-17T03:21:42.102Z,40.93
2018-02-17T03:24:10.088Z,41.43
2018-02-17T03:26:37.670Z,43.33
2018-02-17T03:29:05.720Z,40.83
2018-02-17T03:31:33.289Z,44.67
2018-02-17T03:34:00.887Z,41.53
2018-02-17T03:36:29.165Z,45.93
2018-02-17T03:38:57.060Z,50.70
2018-02-17T03:41:24.601Z,65.63
2018-02-17T03:43:52.182Z,56.33
2018-02-17T03:46:19.778Z,50.23
2018-02-17T03:48:47.322Z,50.50
2018-02-17T03:51:14.861Z,47.43
2018-02-17T03:53:42.596Z,50.97
2018-02-17T03:56:10.173Z,54.53
2018-02-17T03:58:37.713Z,49.97
2018-02-17T04:01:05.294Z,51.93
2018-02-17T04:03:32.878Z,54.43
2018-02-17T04:06:01.234Z,50.50
2018-02-17T04:08:28.839Z,53.20
2018-02-17T04:10:56.402Z,57.70
2018-02-17T04:13:23.982Z,52.93
2018-02-17T04:15:51.558Z,57.67
2018-02-17T04:18:19.154Z,52.33
2018-02-17T04:20:46.749Z,57.90
2018-02-17T04:23:14.298Z,52.57
2018-02-17T04:25:42.166Z,49.33
2018-02-17T04:28:10.061Z,53.37
2018-02-17T04:30:37.613Z,52.27
2018-02-17T04:33:05.462Z,53.23
2018-02-17T04:35:33.006Z,54.37
2018-02-17T04:38:00.568Z,52.63
2018-02-17T04:43:48.530Z,54.80
2018-02-17T04:46:21.553Z,55.07
2018-02-17T04:48:53.620Z,57.23
2018-02-17T04:54:42.955Z,55.53
2018-02-17T05:00:16.381Z,55.23
2018-02-17T05:02:46.784Z,54.90
2018-02-17T05:05:14.394Z,56.13
2018-02-17T05:07:41.970Z,57.20
2018-02-17T05:10:09.587Z,58.43
2018-02-17T05:12:37.184Z,55.23
2018-02-17T05:15:21.546Z,55.27
2018-02-17T05:17:52.140Z,53.77
2018-02-17T05:20:20.464Z,53.70
2018-02-17T05:22:48.091Z,53.90
2018-02-17T05:25:27.033Z,54.43
2018-02-17T05:27:54.948Z,55.20
2018-02-17T05:30:24.861Z,56.03
2018-02-17T05:32:57.829Z,59.57
2018-02-17T05:35:31.297Z,61.43
2018-02-17T05:37:58.949Z,62.60
2018-02-17T05:43:26.470Z,63.53
2018-02-17T05:45:58.118Z,71.63
2018-02-17T05:48:27.362Z,69.47
2018-02-17T05:50:54.983Z,76.90
2018-02-17T05:53:22.522Z,77.03
2018-02-17T05:55:50.102Z,76.37
2018-02-17T05:58:17.735Z,75.63
2018-02-17T06:00:45.387Z,79.10
2018-02-17T06:03:12.978Z,86.37
2018-02-17T06:05:40.569Z,85.37
2018-02-17T06:08:08.673Z,101.27
2018-02-17T06:10:36.263Z,105.20
2018-02-17T06:13:03.871Z,107.65
2018-02-17T06:15:31.414Z,105.17
2018-02-17T06:17:58.967Z,104.97
2018-02-17T06:20:26.555Z,158.65
2018-02-17T06:22:54.106Z,128.07
2018-02-17T06:25:21.690Z,129.93
2018-02-17T06:27:50.345Z,146.10
2018-02-17T06:30:17.938Z,140.17
2018-02-17T06:32:46.444Z,155.77
2018-02-17T06:35:14.047Z,166.33
2018-02-17T06:37:41.594Z,157.40
2018-02-17T06:40:09.152Z,164.70
2018-02-17T06:42:36.759Z,152.57
2018-02-17T06:45:04.307Z,147.07
2018-02-17T06:47:31.859Z,142.35
2018-02-17T06:49:59.512Z,122.70
2018-02-17T06:52:27.048Z,118.97
2018-02-17T06:54:54.604Z,111.53
2018-02-17T06:57:22.213Z,108.65
2018-02-17T06:59:49.827Z,105.97
2018-02-17T07:02:17.420Z,90.97
2018-02-17T07:04:45.010Z,84.17
2018-02-17T07:07:12.714Z,83.47
2018-02-17T07:09:40.370Z,78.50
2018-02-17T07:12:08.198Z,75.33
2018-02-17T07:14:35.978Z,76.80
2018-02-17T07:17:03.518Z,78.87
2018-02-17T07:19:31.080Z,84.57
2018-02-17T07:21:58.688Z,76.90
2018-02-17T07:24:26.847Z,74.93
2018-02-17T07:26:54.524Z,74.30
2018-02-17T07:29:22.102Z,72.90
2018-02-17T07:31:50.058Z,60.97
2018-02-17T07:34:17.652Z,63.63
2018-02-17T07:36:46.335Z,61.50
2018-02-17T07:39:13.898Z,60.23
2018-02-17T07:41:41.970Z,61.13
2018-02-17T07:44:09.525Z,57.40
2018-02-17T07:46:37.114Z,60.77
2018-02-17T07:49:04.725Z,57.47
2018-02-17T07:51:32.587Z,55.13
2018-02-17T07:54:00.108Z,54.03
2018-02-17T07:56:27.701Z,56.53
2018-02-17T07:58:55.246Z,50.00
2018-02-17T08:01:22.826Z,50.27
2018-02-17T08:03:50.366Z,52.83
2018-02-17T08:06:17.976Z,46.70
2018-02-17T08:08:45.563Z,48.37
2018-02-17T08:11:13.163Z,45.03
2018-02-17T08:13:40.703Z,46.53
2018-02-17T08:16:08.574Z,42.23
2018-02-17T08:18:36.172Z,43.87
2018-02-17T08:21:03.719Z,43.53
2018-02-17T08:23:31.305Z,41.53
2018-02-17T08:25:58.895Z,40.07
2018-02-17T08:28:26.592Z,40.13
2018-02-17T08:30:54.239Z,41.57
2018-02-17T08:33:21.804Z,42.30
2018-02-17T08:35:49.391Z,44.30
2018-02-17T08:38:16.976Z,40.47
2018-02-17T08:40:45.357Z,40.87
2018-02-17T08:43:12.939Z,39.20
2018-02-17T08:45:40.523Z,39.77
2018-02-17T08:48:08.387Z,37.97
2018-02-17T08:50:35.938Z,39.53
2018-02-17T08:53:03.911Z,39.20
2018-02-17T08:55:31.468Z,39.30
2018-02-17T08:57:59.042Z,38.60
2018-02-17T09:00:26.817Z,38.23
2018-02-17T09:02:54.826Z,38.37
2018-02-17T09:05:22.449Z,37.37
2018-02-17T09:07:50.363Z,37.30
2018-02-17T09:10:18.014Z,36.40
2018-02-17T09:12:45.585Z,35.80
2018-02-17T09:15:13.130Z,35.30
2018-02-17T09:17:40.723Z,37.97
2018-02-17T09:20:08.870Z,40.70
2018-02-17T09:22:37.887Z,37.10
2018-02-17T09:25:05.474Z,36.77
2018-02-17T09:27:33.065Z,35.67
2018-02-17T09:30:00.665Z,37.03
2018-02-17T09:32:28.307Z,37.57
2018-02-17T09:34:55.896Z,45.95
2018-02-17T09:37:23.450Z,39.50
2018-02-17T09:39:51.041Z,37.40
2018-02-17T09:42:18.586Z,38.57
2018-02-17T09:44:46.179Z,39.80
2018-02-17T09:47:13.978Z,38.63
2018-02-17T09:49:41.560Z,38.57
2018-02-17T09:52:09.199Z,36.00
2018-02-17T09:54:36.742Z,38.00
2018-02-17T09:57:04.724Z,36.77
2018-02-17T09:59:32.311Z,36.73
2018-02-17T10:01:59.916Z,39.17
2018-02-17T10:04:27.508Z,40.90
2018-02-17T10:06:55.056Z,40.17
2018-02-17T10:09:22.639Z,37.83
2018-02-17T10:11:50.184Z,37.03
2018-02-17T10:14:17.791Z,37.00
2018-02-17T10:16:45.353Z,37.50
2018-02-17T10:19:12.912Z,39.22
2018-02-17T10:21:40.503Z,38.80
2018-02-17T10:24:08.096Z,35.63
2018-02-17T10:26:36.359Z,35.63
2018-02-17T10:29:04.178Z,37.10
2018-02-17T10:31:31.775Z,36.33
2018-02-17T10:33:59.805Z,35.60
2018-02-17T10:36:27.401Z,35.87
2018-02-17T10:38:54.984Z,35.53
2018-02-17T10:41:22.530Z,34.77
2018-02-17T10:43:50.122Z,34.50
2018-02-17T10:46:17.706Z,37.33
2018-02-17T10:48:45.931Z,37.50
2018-02-17T10:51:13.470Z,38.03
2018-02-17T10:53:41.071Z,36.57
2018-02-17T10:56:08.631Z,37.73
2018-02-17T10:58:36.226Z,37.27
2018-02-17T11:01:03.831Z,39.57
2018-02-17T11:03:31.419Z,40.63
2018-02-17T11:05:59.667Z,37.60
2018-02-17T11:08:27.267Z,40.33
2018-02-17T11:10:54.849Z,36.63
2018-02-17T11:13:22.422Z,39.95
2018-02-17T11:15:50.851Z,35.20
2018-02-17T11:18:18.445Z,34.97
2018-02-17T11:20:46.433Z,37.23
2018-02-17T11:23:14.494Z,35.23
2018-02-17T11:25:42.034Z,36.27
2018-02-17T11:28:09.588Z,38.87
2018-02-17T11:30:37.184Z,36.90
2018-02-17T11:33:04.735Z,35.83
2018-02-17T11:35:32.325Z,35.33
2018-02-17T11:37:59.872Z,35.77
2018-02-17T11:40:27.467Z,37.00
2018-02-17T11:42:55.010Z,34.30
2018-02-17T11:45:22.679Z,35.13
2018-02-17T11:47:50.502Z,34.43
2018-02-17T11:50:18.366Z,34.87
2018-02-17T11:52:46.433Z,34.73
2018-02-17T11:55:14.340Z,35.33
2018-02-17T11:57:42.165Z,34.10
2018-02-17T12:00:09.755Z,33.77
2018-02-17T12:02:38.154Z,35.17
2018-02-17T12:05:05.758Z,34.13
2018-02-17T12:07:34.287Z,34.53
2018-02-17T12:10:02.346Z,33.63
2018-02-17T12:12:29.938Z,33.73
2018-02-17T12:14:57.525Z,33.83
2018-02-17T12:17:25.132Z,32.40
2018-02-17T12:19:52.956Z,32.17
2018-02-17T12:22:20.668Z,32.43
2018-02-17T12:24:48.210Z,31.83
2018-02-17T12:27:15.813Z,30.50
2018-02-17T12:29:43.437Z,31.47
2018-02-17T12:32:10.978Z,30.83
2018-02-17T12:34:38.925Z,30.60
2018-02-17T12:37:06.949Z,32.03
2018-02-17T12:39:35.227Z,29.70
2018-02-17T12:42:02.816Z,29.17
2018-02-17T12:44:30.548Z,31.37
2018-02-17T12:46:58.138Z,30.83
2018-02-17T12:49:25.732Z,32.47
2018-02-17T12:51:53.310Z,31.17
2018-02-17T12:54:20.862Z,31.50
2018-02-17T12:56:48.420Z,31.30
2018-02-17T12:59:15.972Z,30.40
2018-02-17T13:01:43.723Z,30.93
2018-02-17T13:04:11.328Z,30.63
2018-02-17T13:06:38.923Z,32.33
2018-02-17T13:09:06.626Z,30.07
2018-02-17T13:11:34.244Z,32.10
2018-02-17T13:14:02.673Z,31.23
2018-02-17T13:16:30.251Z,34.23
2018-02-17T13:18:57.822Z,31.43
2018-02-17T13:21:26.098Z,32.87
2018-02-17T13:23:53.699Z,33.30
2018-02-17T13:26:21.283Z,33.07
2018-02-17T13:28:48.839Z,29.97
2018-02-17T13:31:16.426Z,33.13
2018-02-17T13:33:43.981Z,33.27
2018-02-17T13:36:12.284Z,31.43
2018-02-17T13:38:40.260Z,30.77
2018-02-17T13:41:07.810Z,31.10
2018-02-17T13:43:35.417Z,32.27
2018-02-17T13:46:02.967Z,30.90
2018-02-17T13:48:30.714Z,33.20
2018-02-17T13:50:58.882Z,30.30
2018-02-17T13:53:26.474Z,29.00
2018-02-17T13:55:54.031Z,30.83
2018-02-17T13:58:22.138Z,29.70
2018-02-17T14:00:49.742Z,30.13
2018-02-17T14:03:17.361Z,28.87
2018-02-17T14:05:45.487Z,29.27
2018-02-17T14:08:13.051Z,28.63
2018-02-17T14:10:40.690Z,29.10
2018-02-17T14:13:08.306Z,29.07
2018-02-17T14:15:35.845Z,27.27
2018-02-17T14:18:03.453Z,28.67
2018-02-17T14:20:31.209Z,28.57
2018-02-17T14:22:58.766Z,29.53
2018-02-17T14:25:26.354Z,27.73
2018-02-17T14:27:54.450Z,29.67
2018-02-17T14:30:22.000Z,28.23
2018-02-17T14:32:50.068Z,28.47
2018-02-17T14:35:17.616Z,29.27
2018-02-17T14:37:45.180Z,27.87
2018-02-17T14:40:13.207Z,29.73
2018-02-17T14:42:40.769Z,27.93
2018-02-17T14:45:08.366Z,28.67
2018-02-17T14:47:35.924Z,29.57
2018-02-17T14:50:03.742Z,28.17
2018-02-17T14:52:31.320Z,29.10
2018-02-17T14:54:58.958Z,29.40
2018-02-17T14:57:26.813Z,30.00
2018-02-17T14:59:54.483Z,29.27
2018-02-17T15:02:23.271Z,28.13
2018-02-17T15:04:51.087Z,29.70
2018-02-17T15:07:20.714Z,30.07
2018-02-17T15:09:48.262Z,31.10
2018-02-17T15:12:15.859Z,30.27
2018-02-17T15:14:44.112Z,29.60
2018-02-17T15:17:13.069Z,27.13
2018-02-17T15:19:41.052Z,28.43
2018-02-17T15:22:08.605Z,27.63
2018-02-17T15:24:37.007Z,27.50
2018-02-17T15:27:05.361Z,26.90
2018-02-17T15:29:33.342Z,26.80
2018-02-17T15:32:00.896Z,27.73
2018-02-17T15:34:28.960Z,27.20
2018-02-17T15:36:57.075Z,27.27
2018-02-17T15:39:24.645Z,28.73
2018-02-17T15:41:52.656Z,28.97
2018-02-17T15:44:20.200Z,31.33
2018-02-17T15:46:47.791Z,32.93
2018-02-17T15:49:16.144Z,33.67
2018-02-17T15:51:44.209Z,34.20
2018-02-17T15:54:14.123Z,38.17
2018-02-17T15:56:43.151Z,38.73
2018-02-17T15:59:10.788Z,42.03
2018-02-17T16:01:38.521Z,44.20
2018-02-17T16:04:06.840Z,36.73
2018-02-17T16:06:34.538Z,34.20
2018-02-17T16:09:02.122Z,35.40
2018-02-17T16:11:30.845Z,53.50
2018-02-17T16:13:58.407Z,48.73
2018-02-17T16:16:25.994Z,42.63
2018-02-17T16:18:53.690Z,55.13
2018-02-17T16:21:21.506Z,52.97
2018-02-17T16:23:49.486Z,57.57
2018-02-17T16:26:17.048Z,47.33
2018-02-17T16:28:44.653Z,61.27
2018-02-17T16:31:13.695Z,60.10
2018-02-17T16:33:41.294Z,66.43
2018-02-17T16:36:09.617Z,74.67
2018-02-17T16:38:37.741Z,60.17
2018-02-17T16:41:05.351Z,66.17
2018-02-17T16:43:32.939Z,66.20
2018-02-17T16:46:00.518Z,69.70
2018-02-17T16:48:28.874Z,70.67
2018-02-17T16:50:56.423Z,69.90
2018-02-17T16:53:24.019Z,66.70
2018-02-17T16:55:51.613Z,71.57
2018-02-17T16:58:20.097Z,68.77
2018-02-17T17:00:48.069Z,73.53
2018-02-17T17:03:16.299Z,64.93
2018-02-17T17:05:44.831Z,69.63
2018-02-17T17:08:12.604Z,71.00
2018-02-17T17:10:40.170Z,71.73
2018-02-17T17:13:08.124Z,73.83
2018-02-17T17:15:36.344Z,70.67
2018-02-17T17:18:03.934Z,78.10
2018-02-17T17:20:31.907Z,77.07
2018-02-17T17:23:00.035Z,80.43
2018-02-17T17:25:29.125Z,89.10
2018-02-17T17:27:58.677Z,84.17
2018-02-17T17:30:27.550Z,89.53
2018-02-17T17:32:55.427Z,88.03
2018-02-17T17:35:23.892Z,94.13
2018-02-17T17:37:53.128Z,91.77
2018-02-17T17:40:21.513Z,93.27
2018-02-17T17:42:49.094Z,109.17
2018-02-17T17:45:16.713Z,123.20
2018-02-17T17:47:46.052Z,120.63
2018-02-17T17:50:14.155Z,104.57
2018-02-17T17:52:41.717Z,98.53
2018-02-17T17:55:10.180Z,97.77
2018-02-17T17:57:39.146Z,87.37
2018-02-17T18:00:07.365Z,88.23
2018-02-17T18:02:35.604Z,85.77
2018-02-17T18:05:04.011Z,83.60
2018-02-17T18:07:32.219Z,84.37
2018-02-17T18:10:00.134Z,85.50
2018-02-17T18:12:27.689Z,83.87
2018-02-17T18:14:55.635Z,83.37
2018-02-17T18:17:24.561Z,87.83
2018-02-17T18:19:52.106Z,82.67
2018-02-17T18:22:20.199Z,83.80
2018-02-17T18:24:49.511Z,83.23
2018-02-17T18:27:17.811Z,82.50
2018-02-17T18:29:45.403Z,76.03
2018-02-17T18:32:13.288Z,67.73
2018-02-17T18:34:40.855Z,74.93
2018-02-17T18:37:08.939Z,69.47
2018-02-17T18:39:37.011Z,68.67
2018-02-17T18:42:04.572Z,67.37
2018-02-17T18:44:33.237Z,65.90
2018-02-17T18:47:01.768Z,63.80
2018-02-17T18:49:30.312Z,58.03
2018-02-17T18:51:59.381Z,57.27
2018-02-17T18:54:27.700Z,52.10
2018-02-17T18:56:55.247Z,57.27
2018-02-17T18:59:24.589Z,53.87
2018-02-17T19:01:52.709Z,53.97
2018-02-17T19:04:21.474Z,52.30
2018-02-17T19:06:49.169Z,52.40
2018-02-17T19:09:17.247Z,54.10
2018-02-17T19:11:45.188Z,54.87
2018-02-17T19:14:12.796Z,54.73
2018-02-17T19:16:40.397Z,57.20
2018-02-17T19:19:07.999Z,61.80
2018-02-17T19:21:35.542Z,61.70
2018-02-17T19:24:03.878Z,57.93
2018-02-17T19:26:31.433Z,62.87
2018-02-17T19:28:58.992Z,65.47
2018-02-17T19:31:26.583Z,60.57
2018-02-17T19:33:55.132Z,61.40
2018-02-17T19:36:23.044Z,59.83
2018-02-17T19:38:50.663Z,62.50
2018-02-17T19:41:18.240Z,59.53
2018-02-17T19:43:46.703Z,61.50
2018-02-17T19:46:14.296Z,61.30
2018-02-17T19:48:43.498Z,66.50
2018-02-17T19:51:11.640Z,74.73
2018-02-17T19:53:39.238Z,73.83
2018-02-17T19:56:08.897Z,66.13
2018-02-17T19:58:37.164Z,64.43
2018-02-17T20:01:04.735Z,64.53
2018-02-17T20:03:32.591Z,63.57
2018-02-17T20:06:00.152Z,63.67
2018-02-17T20:08:28.375Z,63.87
2018-02-17T20:10:56.899Z,76.17
2018-02-17T20:13:25.342Z,80.73
2018-02-17T20:15:55.320Z,94.53
2018-02-17T20:18:22.917Z,92.87
2018-02-17T20:20:52.482Z,82.57
2018-02-17T20:23:20.440Z,83.40
2018-02-17T20:25:49.055Z,87.03
2018-02-17T20:28:17.231Z,82.20
2018-02-17T20:30:46.470Z,89.17
2018-02-17T20:33:14.024Z,86.87
2018-02-17T20:35:41.681Z,86.93
2018-02-17T20:38:09.727Z,90.23
2018-02-17T20:40:37.291Z,91.40
2018-02-17T20:43:05.839Z,84.50
2018-02-17T20:45:33.480Z,89.47
2018-02-17T20:48:01.355Z,86.40
2018-02-17T20:50:28.908Z,81.73
2018-02-17T20:52:57.219Z,84.07
2018-02-17T20:55:25.348Z,82.93
2018-02-17T20:57:53.246Z,84.47
2018-02-17T21:00:22.175Z,100.93
2018-02-17T21:02:50.337Z,97.27
2018-02-17T21:05:18.460Z,102.43
2018-02-17T21:07:46.435Z,100.67
2018-02-17T21:10:14.787Z,100.73
2018-02-17T21:12:42.854Z,86.10
2018-02-17T21:15:12.007Z,85.80
2018-02-17T21:17:40.148Z,86.50
2018-02-17T21:20:08.346Z,99.03
2018-02-17T21:22:35.978Z,107.43
2018-02-17T21:25:03.970Z,117.93
2018-02-17T21:27:31.545Z,107.17
2018-02-17T21:29:59.396Z,101.43
2018-02-17T21:32:26.986Z,101.03
2018-02-17T21:34:54.569Z,94.77
2018-02-17T21:37:22.755Z,84.43
2018-02-17T21:39:50.468Z,87.83
2018-02-17T21:42:18.059Z,83.90
2018-02-17T21:44:46.042Z,77.37
2018-02-17T21:47:15.065Z,77.40
2018-02-17T21:49:42.664Z,82.27
2018-02-17T21:52:10.431Z,81.07
2018-02-17T21:54:38.093Z,82.30
2018-02-17T21:57:05.735Z,79.60
2018-02-17T21:59:33.405Z,80.57
2018-02-17T22:02:02.230Z,79.50
2018-02-17T22:04:29.814Z,77.33
2018-02-17T22:06:57.358Z,82.50
2018-02-17T22:09:25.047Z,85.63
2018-02-17T22:11:53.450Z,83.20
2018-02-17T22:14:21.092Z,78.17
2018-02-17T22:16:48.702Z,75.93
2018-02-17T22:19:16.435Z,80.13
2018-02-17T22:21:44.251Z,79.80
2018-02-17T22:24:12.051Z,78.13
2018-02-17T22:26:40.687Z,81.67
2018-02-17T22:29:08.235Z,78.07
2018-02-17T22:31:35.840Z,78.87
2018-02-17T22:34:03.389Z,96.80
2018-02-17T22:36:30.952Z,104.57
2018-02-17T22:38:58.556Z,106.43
2018-02-17T22:41:26.093Z,94.30
2018-02-17T22:43:53.692Z,114.83
2018-02-17T22:46:21.253Z,114.87
2018-02-17T22:48:48.806Z,120.77
2018-02-17T22:51:16.401Z,113.70
2018-02-17T22:53:43.946Z,111.67
2018-02-17T22:56:11.543Z,130.10
2018-02-17T22:58:39.090Z,129.60
2018-02-17T23:01:06.693Z,129.60
2018-02-17T23:03:34.246Z,138.27
2018-02-17T23:06:01.831Z,120.20
2018-02-17T23:08:29.426Z,134.53
2018-02-17T23:10:57.917Z,132.47
2018-02-17T23:13:25.516Z,142.03
2018-02-17T23:15:53.072Z,144.87
2018-02-17T23:18:20.655Z,120.97
2018-02-17T23:20:48.207Z,115.43
2018-02-17T23:23:15.798Z,116.77
2018-02-17T23:25:43.389Z,111.80
2018-02-17T23:28:10.955Z,107.67
2018-02-17T23:30:38.565Z,106.73
2018-02-17T23:33:06.113Z,104.20
2018-02-17T23:35:33.662Z,102.40
2018-02-17T23:38:01.255Z,102.23
2018-02-17T23:40:28.802Z,103.63
2018-02-17T23:42:56.874Z,104.77
2018-02-17T23:45:24.474Z,102.13
2018-02-17T23:47:52.089Z,101.63
2018-02-17T23:50:19.651Z,100.33
2018-02-17T23:52:47.247Z,100.60
2018-02-17T23:55:15.589Z,98.23
2018-02-17T23:57:43.186Z,103.00
